createdAt,value
2018-08-12T00:00:39.558Z,55.10
2018-08-12T00:03:11.528Z,53.91
2018-08-12T00:05:43.188Z,54.59
2018-08-12T00:08:14.954Z,53.69
2018-08-12T00:10:46.574Z,54.56
2018-08-12T00:13:18.567Z,53.37
2018-08-12T00:15:50.599Z,55.01
2018-08-12T00:18:22.779Z,54.67
2018-08-12T00:20:54.402Z,55.73
2018-08-12T00:23:26.214Z,55.46
2018-08-12T00:25:58.186Z,54.98
2018-08-12T00:28:30.425Z,55.94
2018-08-12T00:31:03.100Z,56.19
2018-08-12T00:33:34.998Z,55.22
2018-08-12T00:36:07.347Z,55.03
2018-08-12T00:38:39.497Z,54.93
2018-08-12T00:41:11.544Z,55.50
2018-08-12T00:43:43.199Z,55.57
2018-08-12T00:46:15.084Z,55.01
2018-08-12T00:48:47.293Z,53.74
2018-08-12T00:51:19.445Z,53.93
2018-08-12T00:53:51.952Z,54.17
2018-08-12T00:56:23.970Z,53.42
2018-08-12T00:58:56.464Z,53.13
2018-08-12T01:01:28.727Z,53.06
2018-08-12T01:04:00.923Z,54.03
2018-08-12T01:06:32.824Z,54.97
2018-08-12T01:09:05.565Z,53.94
2018-08-12T01:11:37.761Z,55.24
2018-08-12T01:14:10.019Z,54.14
2018-08-12T01:16:42.710Z,54.14
2018-08-12T01:19:15.959Z,54.81
2018-08-12T01:21:47.968Z,55.25
2018-08-12T01:24:19.696Z,54.86
2018-08-12T01:26:51.680Z,55.22
2018-08-12T01:29:23.584Z,54.79
2018-08-12T01:31:55.498Z,54.94
2018-08-12T01:34:27.378Z,53.99
2018-08-12T01:36:59.095Z,54.82
2018-08-12T01:39:31.172Z,54.68
2018-08-12T01:42:03.030Z,54.24
2018-08-12T01:44:34.828Z,54.31
2018-08-12T01:47:06.944Z,53.89
2018-08-12T01:49:39.027Z,54.31
2018-08-12T01:52:11.145Z,54.44
2018-08-12T01:54:43.110Z,54.48
2018-08-12T01:57:15.069Z,55.00
2018-08-12T01:59:47.097Z,54.24
2018-08-12T02:02:18.693Z,54.33
2018-08-12T02:04:50.743Z,54.90
2018-08-12T02:07:22.447Z,54.69
2018-08-12T02:09:54.515Z,53.91
2018-08-12T02:12:26.368Z,55.29
2018-08-12T02:14:57.993Z,54.51
2018-08-12T02:17:29.876Z,54.94
2018-08-12T02:20:02.577Z,55.33
2018-08-12T02:22:34.439Z,54.12
2018-08-12T02:25:06.697Z,54.00
2018-08-12T02:27:38.656Z,53.72
2018-08-12T02:30:12.564Z,54.10
2018-08-12T02:32:44.900Z,51.95
2018-08-12T02:35:17.063Z,53.91
2018-08-12T02:37:48.747Z,53.96
2018-08-12T02:40:21.046Z,54.33
2018-08-12T02:42:52.725Z,53.59
2018-08-12T02:45:24.617Z,54.09
2018-08-12T02:47:56.810Z,54.05
2018-08-12T02:50:29.123Z,54.62
2018-08-12T02:53:00.772Z,54.85
2018-08-12T02:55:32.667Z,55.18
2018-08-12T02:58:04.811Z,54.46
2018-08-12T03:00:36.821Z,55.18
2018-08-12T03:03:08.911Z,55.52
2018-08-12T03:05:40.847Z,54.93
2018-08-12T03:08:12.556Z,55.76
2018-08-12T03:10:44.502Z,54.54
2018-08-12T03:13:16.260Z,55.68
2018-08-12T03:15:48.070Z,54.79
2018-08-12T03:18:19.853Z,56.04
2018-08-12T03:20:51.697Z,55.18
2018-08-12T03:23:23.614Z,55.81
2018-08-12T03:25:55.284Z,55.68
2018-08-12T03:28:27.102Z,55.70
2018-08-12T03:30:59.025Z,55.90
2018-08-12T03:33:30.610Z,55.92
2018-08-12T03:36:03.320Z,55.82
2018-08-12T03:38:35.118Z,47.43
2018-08-12T03:41:07.436Z,55.28
2018-08-12T03:43:39.560Z,55.34
2018-08-12T03:46:12.645Z,55.75
2018-08-12T03:48:45.567Z,55.76
2018-08-12T03:51:17.429Z,56.95
2018-08-12T03:53:49.233Z,56.73
2018-08-12T03:56:21.241Z,57.48
2018-08-12T03:58:53.005Z,57.36
2018-08-12T04:01:24.868Z,56.96
2018-08-12T04:03:56.753Z,58.02
2018-08-12T04:06:28.637Z,57.89
2018-08-12T04:09:00.482Z,57.56
2018-08-12T04:11:32.239Z,56.88
2018-08-12T04:14:04.595Z,57.49
2018-08-12T04:16:36.676Z,57.73
2018-08-12T04:19:08.340Z,58.70
2018-08-12T04:21:40.193Z,58.61
2018-08-12T04:24:12.044Z,57.71
2018-08-12T04:26:43.607Z,57.81
2018-08-12T04:29:15.436Z,57.81
2018-08-12T04:31:47.068Z,57.81
2018-08-12T04:34:18.880Z,58.82
2018-08-12T04:36:51.308Z,58.01
2018-08-12T04:39:22.826Z,58.23
2018-08-12T04:41:54.771Z,56.74
2018-08-12T04:44:26.708Z,53.91
2018-08-12T04:46:59.099Z,55.86
2018-08-12T04:49:31.815Z,56.87
2018-08-12T04:52:03.785Z,59.91
2018-08-12T04:54:38.770Z,60.12
2018-08-12T04:57:12.492Z,60.00
2018-08-12T04:59:49.534Z,60.15
2018-08-12T05:02:21.369Z,60.03
2018-08-12T05:04:56.352Z,59.74
2018-08-12T05:07:28.225Z,59.84
2018-08-12T05:10:03.693Z,59.10
2018-08-12T05:12:36.153Z,59.37
2018-08-12T05:15:09.862Z,59.79
2018-08-12T05:17:42.158Z,60.04
2018-08-12T05:20:15.029Z,60.31
2018-08-12T05:22:46.776Z,59.02
2018-08-12T05:25:19.335Z,59.83
2018-08-12T05:27:58.173Z,60.10
2018-08-12T05:30:32.072Z,58.89
2018-08-12T05:33:08.374Z,59.52
2018-08-12T05:35:40.915Z,58.67
2018-08-12T05:38:13.834Z,45.80
2018-08-12T05:40:46.371Z,59.45
2018-08-12T05:43:20.453Z,58.87
2018-08-12T05:45:52.463Z,59.60
2018-08-12T05:48:24.665Z,59.75
2018-08-12T05:50:56.491Z,61.34
2018-08-12T05:53:28.566Z,59.75
2018-08-12T05:56:01.334Z,59.75
2018-08-12T05:58:33.305Z,58.86
2018-08-12T06:01:05.019Z,58.63
2018-08-12T06:03:37.162Z,59.20
2018-08-12T06:06:08.974Z,59.14
2018-08-12T06:08:40.793Z,58.97
2018-08-12T06:11:12.204Z,59.61
2018-08-12T06:13:44.451Z,59.51
2018-08-12T06:16:16.089Z,58.54
2018-08-12T06:18:48.057Z,57.88
2018-08-12T06:21:19.915Z,59.00
2018-08-12T06:23:51.787Z,59.13
2018-08-12T06:26:23.917Z,58.47
2018-08-12T06:28:55.694Z,59.08
2018-08-12T06:31:27.527Z,58.18
2018-08-12T06:33:59.506Z,58.36
2018-08-12T06:36:31.290Z,57.60
2018-08-12T06:39:03.144Z,58.84
2018-08-12T06:41:36.372Z,58.21
2018-08-12T06:44:08.281Z,58.31
2018-08-12T06:46:39.905Z,57.86
2018-08-12T06:49:11.754Z,58.31
2018-08-12T06:51:43.482Z,58.10
2018-08-12T06:54:15.108Z,57.94
2018-08-12T06:56:46.810Z,58.55
2018-08-12T06:59:18.452Z,58.32
2018-08-12T07:01:50.177Z,57.75
2018-08-12T07:04:22.026Z,58.71
2018-08-12T07:06:54.111Z,58.79
2018-08-12T07:09:26.136Z,58.58
2018-08-12T07:11:59.260Z,58.70
2018-08-12T07:14:31.296Z,58.20
2018-08-12T07:17:03.054Z,58.58
2018-08-12T07:19:35.022Z,58.61
2018-08-12T07:22:07.093Z,58.28
2018-08-12T07:24:38.875Z,58.36
2018-08-12T07:27:10.708Z,58.00
2018-08-12T07:29:42.521Z,58.94
2018-08-12T07:32:14.340Z,58.75
2018-08-12T07:34:46.289Z,59.29
2018-08-12T07:37:18.381Z,58.60
2018-08-12T07:39:50.371Z,59.16
2018-08-12T07:42:22.555Z,57.94
2018-08-12T07:44:54.513Z,58.72
2018-08-12T07:47:26.406Z,58.02
2018-08-12T07:49:57.906Z,57.23
2018-08-12T07:52:29.524Z,58.84
2018-08-12T07:55:01.428Z,57.73
2018-08-12T07:57:33.722Z,58.10
2018-08-12T08:00:05.872Z,59.02
2018-08-12T08:02:37.961Z,58.98
2018-08-12T08:05:09.862Z,59.24
2018-08-12T08:07:41.835Z,58.13
2018-08-12T08:10:15.838Z,59.19
2018-08-12T08:12:47.653Z,58.64
2018-08-12T08:15:22.708Z,58.41
2018-08-12T08:17:54.530Z,58.37
2018-08-12T08:20:26.313Z,57.52
2018-08-12T08:22:58.325Z,58.58
2018-08-12T08:25:30.428Z,58.32
2018-08-12T08:28:02.209Z,58.73
2018-08-12T08:30:33.861Z,58.02
2018-08-12T08:33:05.463Z,58.50
2018-08-12T08:35:37.855Z,58.33
2018-08-12T08:38:09.792Z,57.71
2018-08-12T08:40:42.137Z,57.39
2018-08-12T08:43:15.278Z,55.38
2018-08-12T08:45:47.203Z,56.50
2018-08-12T08:48:19.011Z,56.47
2018-08-12T08:50:51.333Z,57.87
2018-08-12T08:53:23.226Z,57.92
2018-08-12T08:55:55.192Z,56.13
2018-08-12T08:58:26.968Z,55.37
2018-08-12T09:00:58.933Z,55.80
2018-08-12T09:03:31.396Z,54.98
2018-08-12T09:06:05.057Z,55.28
2018-08-12T09:08:37.226Z,55.44
2018-08-12T09:11:09.595Z,54.52
2018-08-12T09:13:41.464Z,55.93
2018-08-12T09:16:13.250Z,55.91
2018-08-12T09:18:45.018Z,55.61
2018-08-12T09:21:16.895Z,55.51
2018-08-12T09:23:48.924Z,54.39
2018-08-12T09:26:21.798Z,55.01
2018-08-12T09:28:53.709Z,54.54
2018-08-12T09:31:25.799Z,54.23
2018-08-12T09:33:57.778Z,52.94
2018-08-12T09:36:30.074Z,54.17
2018-08-12T09:39:02.141Z,36.86
2018-08-12T09:41:33.968Z,42.24
2018-08-12T09:44:06.667Z,46.88
2018-08-12T09:46:38.389Z,49.95
2018-08-12T09:49:11.111Z,52.74
2018-08-12T09:51:43.063Z,52.24
2018-08-12T09:54:14.854Z,53.98
2018-08-12T09:56:46.950Z,52.68
2018-08-12T09:59:19.042Z,54.39
2018-08-12T10:01:50.801Z,52.59
2018-08-12T10:04:22.591Z,53.33
2018-08-12T10:06:54.550Z,53.90
2018-08-12T10:09:26.300Z,54.50
2018-08-12T10:11:58.039Z,54.17
2018-08-12T10:14:30.544Z,55.11
2018-08-12T10:17:02.988Z,54.69
2018-08-12T10:19:35.311Z,53.52
2018-08-12T10:22:08.346Z,53.45
2018-08-12T10:24:42.424Z,53.74
2018-08-12T10:27:16.097Z,53.42
2018-08-12T10:29:49.419Z,55.08
2018-08-12T10:32:22.296Z,47.25
2018-08-12T10:34:55.628Z,50.42
2018-08-12T10:37:28.826Z,50.78
2018-08-12T10:40:01.598Z,50.49
2018-08-12T10:42:34.145Z,50.84
2018-08-12T10:45:08.610Z,51.07
2018-08-12T10:47:42.499Z,52.73
2018-08-12T10:50:18.942Z,51.99
2018-08-12T10:52:52.308Z,52.76
2018-08-12T10:55:26.077Z,52.39
2018-08-12T10:57:59.415Z,51.83
2018-08-12T11:00:34.591Z,51.93
2018-08-12T11:03:08.542Z,52.68
2018-08-12T11:05:42.395Z,52.35
2018-08-12T11:08:16.145Z,52.04
2018-08-12T11:10:49.142Z,53.24
2018-08-12T11:13:21.523Z,53.16
2018-08-12T11:15:54.567Z,52.44
2018-08-12T11:18:27.741Z,51.37
2018-08-12T11:21:00.167Z,53.57
2018-08-12T11:23:33.012Z,51.97
2018-08-12T11:26:06.200Z,52.67
2018-08-12T11:28:39.345Z,53.75
2018-08-12T11:31:12.702Z,51.65
2018-08-12T11:33:45.393Z,51.58
2018-08-12T11:36:17.229Z,51.60
2018-08-12T11:38:49.177Z,51.36
2018-08-12T11:41:20.950Z,51.02
2018-08-12T11:43:53.004Z,51.65
2018-08-12T11:46:24.850Z,51.99
2018-08-12T11:48:56.627Z,46.11
2018-08-12T11:51:28.130Z,46.64
2018-08-12T11:53:59.905Z,48.83
2018-08-12T11:56:31.731Z,48.71
2018-08-12T11:59:03.543Z,50.69
2018-08-12T12:01:35.152Z,51.24
2018-08-12T12:04:06.998Z,51.34
2018-08-12T12:06:39.719Z,50.49
2018-08-12T12:09:12.309Z,50.03
2018-08-12T12:11:44.303Z,51.49
2018-08-12T12:14:16.203Z,49.82
2018-08-12T12:16:47.834Z,50.68
2018-08-12T12:19:19.730Z,50.62
2018-08-12T12:21:51.553Z,49.45
2018-08-12T12:24:23.346Z,49.56
2018-08-12T12:26:55.102Z,49.91
2018-08-12T12:29:26.962Z,49.23
2018-08-12T12:31:58.498Z,49.16
2018-08-12T12:34:30.188Z,49.42
2018-08-12T12:37:01.866Z,50.74
2018-08-12T12:39:33.461Z,50.20
2018-08-12T12:42:05.407Z,49.48
2018-08-12T12:44:37.315Z,49.43
2018-08-12T12:47:09.085Z,50.22
2018-08-12T12:49:41.023Z,48.58
2018-08-12T12:52:12.811Z,49.50
2018-08-12T12:54:45.588Z,50.29
2018-08-12T12:57:17.361Z,49.90
2018-08-12T12:59:49.211Z,50.58
2018-08-12T13:02:20.951Z,50.37
2018-08-12T13:04:52.694Z,50.60
2018-08-12T13:07:25.144Z,48.72
2018-08-12T13:09:56.900Z,48.70
2018-08-12T13:12:28.579Z,48.70
2018-08-12T13:15:00.278Z,48.70
2018-08-12T13:17:31.791Z,48.70
2018-08-12T13:20:03.653Z,48.64
2018-08-12T13:22:35.259Z,49.70
2018-08-12T13:25:08.572Z,48.05
2018-08-12T13:27:40.353Z,47.52
2018-08-12T13:30:12.906Z,46.83
2018-08-12T13:32:45.690Z,46.83
2018-08-12T13:35:17.564Z,47.74
2018-08-12T13:37:49.141Z,47.74
2018-08-12T13:40:21.232Z,46.97
2018-08-12T13:42:53.173Z,46.97
2018-08-12T13:45:25.894Z,46.97
2018-08-12T13:47:57.878Z,46.71
2018-08-12T13:50:29.831Z,46.59
2018-08-12T13:53:01.624Z,47.56
2018-08-12T13:55:33.560Z,46.83
2018-08-12T13:58:05.406Z,48.25
2018-08-12T14:00:36.801Z,48.61
2018-08-12T14:03:08.681Z,48.79
2018-08-12T14:05:40.446Z,50.82
2018-08-12T14:08:12.696Z,53.57
2018-08-12T14:10:44.519Z,55.28
2018-08-12T14:13:16.094Z,53.95
2018-08-12T14:15:47.780Z,54.66
2018-08-12T14:18:19.730Z,55.98
2018-08-12T14:20:51.653Z,54.84
2018-08-12T14:23:23.474Z,54.79
2018-08-12T14:25:55.319Z,55.57
2018-08-12T14:28:26.924Z,55.35
2018-08-12T14:30:58.620Z,56.50
2018-08-12T14:33:30.118Z,56.31
2018-08-12T14:36:01.879Z,56.63
2018-08-12T14:38:33.663Z,55.84
2018-08-12T14:41:05.485Z,57.35
2018-08-12T14:43:37.076Z,59.81
2018-08-12T14:46:09.137Z,59.00
2018-08-12T14:48:40.840Z,62.17
2018-08-12T14:51:12.740Z,62.29
2018-08-12T14:53:44.501Z,62.69
2018-08-12T14:56:16.228Z,62.24
2018-08-12T14:58:47.895Z,62.64
2018-08-12T15:01:19.718Z,63.67
2018-08-12T15:03:51.098Z,63.24
2018-08-12T15:06:22.875Z,61.17
2018-08-12T15:08:56.272Z,63.08
2018-08-12T15:11:27.888Z,63.78
2018-08-12T15:13:59.675Z,64.25
2018-08-12T15:16:31.426Z,63.40
2018-08-12T15:19:03.324Z,64.50
2018-08-12T15:21:35.591Z,63.89
2018-08-12T15:24:07.821Z,64.73
2018-08-12T15:26:39.361Z,63.61
2018-08-12T15:29:11.050Z,64.25
2018-08-12T15:31:42.860Z,64.16
2018-08-12T15:34:14.518Z,61.41
2018-08-12T15:36:46.330Z,59.28
2018-08-12T15:39:18.005Z,58.94
2018-08-12T15:41:49.631Z,59.78
2018-08-12T15:44:21.423Z,60.00
2018-08-12T15:46:52.973Z,59.62
2018-08-12T15:49:24.613Z,59.41
2018-08-12T15:51:56.433Z,60.13
2018-08-12T15:54:27.963Z,58.64
2018-08-12T15:56:59.743Z,59.81
2018-08-12T15:59:31.573Z,59.03
2018-08-12T16:02:03.322Z,58.92
2018-08-12T16:04:35.107Z,59.83
2018-08-12T16:07:09.895Z,60.05
2018-08-12T16:09:41.642Z,61.13
2018-08-12T16:12:13.417Z,59.16
2018-08-12T16:14:45.813Z,59.42
2018-08-12T16:17:17.353Z,59.62
2018-08-12T16:19:49.124Z,59.97
2018-08-12T16:22:20.814Z,59.90
2018-08-12T16:24:52.636Z,60.24
2018-08-12T16:27:24.608Z,59.58
2018-08-12T16:29:56.970Z,53.09
2018-08-12T16:32:28.842Z,54.49
2018-08-12T16:35:00.906Z,55.12
2018-08-12T16:37:32.757Z,56.44
2018-08-12T16:40:04.717Z,54.74
2018-08-12T16:42:36.642Z,53.67
2018-08-12T16:45:09.152Z,55.07
2018-08-12T16:47:41.120Z,54.45
2018-08-12T16:50:12.945Z,54.35
2018-08-12T16:52:45.291Z,53.49
2018-08-12T16:55:18.574Z,52.79
2018-08-12T16:57:50.043Z,52.99
2018-08-12T17:00:24.058Z,52.40
2018-08-12T17:02:56.090Z,51.84
2018-08-12T17:05:27.745Z,51.21
2018-08-12T17:07:59.458Z,50.67
2018-08-12T17:10:32.511Z,52.16
2018-08-12T17:13:04.644Z,51.47
2018-08-12T17:15:36.677Z,51.07
2018-08-12T17:18:08.705Z,52.25
2018-08-12T17:20:40.984Z,50.65
2018-08-12T17:23:12.901Z,50.60
2018-08-12T17:25:44.644Z,49.20
2018-08-12T17:28:16.303Z,48.87
2018-08-12T17:30:48.010Z,52.08
2018-08-12T17:33:19.866Z,50.66
2018-08-12T17:35:51.564Z,50.14
2018-08-12T17:38:23.376Z,50.22
2018-08-12T17:40:55.078Z,52.25
2018-08-12T17:43:27.080Z,51.29
2018-08-12T17:45:58.761Z,50.83
2018-08-12T17:48:30.651Z,50.49
2018-08-12T17:51:02.129Z,50.79
2018-08-12T17:53:33.860Z,52.16
2018-08-12T17:56:05.359Z,50.68
2018-08-12T17:58:37.290Z,51.13
2018-08-12T18:01:08.909Z,51.84
2018-08-12T18:03:40.772Z,51.73
2018-08-12T18:06:12.573Z,54.24
2018-08-12T18:08:44.283Z,52.09
2018-08-12T18:11:15.919Z,52.38
2018-08-12T18:13:48.756Z,52.38
2018-08-12T18:16:20.671Z,52.28
2018-08-12T18:18:52.636Z,51.56
2018-08-12T18:21:24.623Z,52.36
2018-08-12T18:23:56.277Z,51.23
2018-08-12T18:26:27.860Z,51.46
2018-08-12T18:28:59.582Z,52.56
2018-08-12T18:31:31.261Z,52.03
2018-08-12T18:34:03.217Z,51.52
2018-08-12T18:36:34.999Z,51.56
2018-08-12T18:39:08.632Z,52.80
2018-08-12T18:41:40.267Z,52.87
2018-08-12T18:44:12.602Z,51.90
2018-08-12T18:46:44.249Z,51.29
2018-08-12T18:49:16.117Z,52.26
2018-08-12T18:51:47.671Z,51.06
2018-08-12T18:54:19.609Z,51.28
2018-08-12T18:56:51.465Z,52.46
2018-08-12T18:59:23.273Z,51.64
2018-08-12T19:01:54.931Z,51.81
2018-08-12T19:04:26.983Z,51.57
2018-08-12T19:06:58.576Z,50.36
2018-08-12T19:09:30.122Z,50.42
2018-08-12T19:12:01.893Z,51.61
2018-08-12T19:14:33.643Z,51.69
2018-08-12T19:17:06.337Z,54.12
2018-08-12T19:19:38.128Z,52.58
2018-08-12T19:22:09.885Z,53.22
2018-08-12T19:24:41.657Z,52.85
2018-08-12T19:27:13.324Z,53.39
2018-08-12T19:29:44.861Z,52.83
2018-08-12T19:32:16.448Z,52.11
2018-08-12T19:34:48.450Z,53.13
2018-08-12T19:37:22.128Z,54.48
2018-08-12T19:39:54.042Z,52.73
2018-08-12T19:42:25.718Z,53.77
2018-08-12T19:44:58.784Z,53.51
2018-08-12T19:47:30.465Z,53.33
2018-08-12T19:50:02.374Z,53.94
2018-08-12T19:52:34.228Z,52.64
2018-08-12T19:55:06.701Z,53.01
2018-08-12T19:57:39.423Z,53.40
2018-08-12T20:00:15.663Z,53.75
2018-08-12T20:02:47.364Z,55.08
2018-08-12T20:05:19.250Z,54.58
2018-08-12T20:07:51.151Z,54.41
2018-08-12T20:10:22.943Z,55.06
2018-08-12T20:12:54.929Z,53.96
2018-08-12T20:15:26.689Z,53.87
2018-08-12T20:17:58.407Z,53.45
2018-08-12T20:20:30.202Z,54.90
2018-08-12T20:23:01.886Z,55.88
2018-08-12T20:25:33.683Z,56.30
2018-08-12T20:28:05.792Z,55.59
2018-08-12T20:30:37.541Z,54.92
2018-08-12T20:33:09.367Z,54.71
2018-08-12T20:35:41.117Z,55.13
2018-08-12T20:38:12.831Z,56.07
2018-08-12T20:40:44.920Z,55.92
2018-08-12T20:43:16.512Z,55.88
2018-08-12T20:45:49.211Z,54.81
2018-08-12T20:48:20.906Z,56.56
2018-08-12T20:50:52.963Z,54.63
2018-08-12T20:53:24.608Z,54.76
2018-08-12T20:55:56.457Z,54.87
2018-08-12T20:58:28.148Z,55.63
2018-08-12T21:00:59.715Z,55.24
2018-08-12T21:03:31.704Z,56.44
2018-08-12T21:06:03.338Z,54.52
2018-08-12T21:08:35.109Z,55.07
2018-08-12T21:11:07.373Z,55.59
2018-08-12T21:13:39.096Z,56.26
2018-08-12T21:16:11.137Z,55.83
2018-08-12T21:18:42.573Z,55.81
2018-08-12T21:21:14.413Z,55.17
2018-08-12T21:23:45.975Z,55.21
2018-08-12T21:26:17.720Z,55.64
2018-08-12T21:28:49.194Z,56.23
2018-08-12T21:31:21.209Z,55.73
2018-08-12T21:33:52.940Z,55.50
2018-08-12T21:36:25.629Z,55.49
2018-08-12T21:38:57.071Z,54.38
2018-08-12T21:41:28.927Z,55.03
2018-08-12T21:44:00.433Z,55.19
2018-08-12T21:46:32.204Z,54.65
2018-08-12T21:49:03.646Z,54.82
2018-08-12T21:51:36.275Z,56.10
2018-08-12T21:54:08.043Z,54.84
2018-08-12T21:56:39.911Z,55.76
2018-08-12T21:59:12.555Z,55.21
2018-08-12T22:01:44.830Z,55.86
2018-08-12T22:04:16.543Z,54.25
2018-08-12T22:06:48.303Z,55.13
2018-08-12T22:09:20.204Z,54.65
2018-08-12T22:11:52.768Z,55.52
2018-08-12T22:14:24.287Z,54.92
2018-08-12T22:16:56.176Z,54.98
2018-08-12T22:19:27.595Z,55.83
2018-08-12T22:21:59.436Z,55.77
2018-08-12T22:24:31.097Z,55.00
2018-08-12T22:27:03.012Z,54.25
2018-08-12T22:29:34.656Z,55.62
2018-08-12T22:32:06.773Z,53.36
2018-08-12T22:34:38.599Z,54.88
2018-08-12T22:37:10.682Z,55.61
2018-08-12T22:39:42.188Z,53.89
2018-08-12T22:42:13.964Z,55.14
2018-08-12T22:44:45.666Z,55.12
2018-08-12T22:47:17.502Z,55.81
2018-08-12T22:49:49.005Z,55.91
2018-08-12T22:52:20.766Z,55.71
2018-08-12T22:54:52.441Z,56.08
2018-08-12T22:57:24.371Z,56.73
2018-08-12T22:59:56.171Z,56.27
2018-08-12T23:02:28.227Z,55.82
2018-08-12T23:04:59.932Z,56.60
2018-08-12T23:07:31.740Z,57.18
2018-08-12T23:10:03.473Z,57.10
2018-08-12T23:12:36.472Z,55.32
2018-08-12T23:15:17.284Z,56.15
2018-08-12T23:17:48.867Z,56.67
2018-08-12T23:20:20.819Z,56.32
2018-08-12T23:22:53.005Z,57.55
2018-08-12T23:25:24.733Z,56.23
2018-08-12T23:27:57.740Z,57.23
2018-08-12T23:30:29.731Z,56.36
2018-08-12T23:33:01.593Z,56.90
2018-08-12T23:35:34.460Z,56.94
2018-08-12T23:38:06.520Z,57.36
2018-08-12T23:40:38.042Z,56.58
2018-08-12T23:43:09.881Z,56.89
2018-08-12T23:45:41.512Z,56.96
2018-08-12T23:48:13.631Z,57.49
2018-08-12T23:50:45.716Z,54.99
2018-08-12T23:53:17.413Z,56.53
2018-08-12T23:55:49.286Z,56.28
2018-08-12T23:58:21.055Z,56.37
